Time;durP1;ratioP1;P1;durP2;ratioP2;P2;SDS_P1;SDS_P2;PMS_P1;PMS_P2;Temp;Humidity;BMP_temperature;BMP_pressure;BME280_temperature;BME280_humidity;BME280_pressure;Samples;Min_cycle;Max_cycle;Signal;HPM_P1;HPM_P2
2024/02/09 00:00:40;;;;;;;11.00;2.83;;;14.10;99.90;;;;;;5042300;28;20202;-55
2024/02/09 00:03:06;;;;;;;9.17;2.70;;;14.20;99.90;;;;;;5045538;28;20205;-55
2024/02/09 00:05:33;;;;;;;9.63;2.73;;;14.20;99.90;;;;;;5043759;28;20228;-55
2024/02/09 00:08:01;;;;;;;10.60;2.80;;;14.30;99.90;;;;;;5034556;28;20222;-56
2024/02/09 00:10:29;;;;;;;10.47;2.80;;;14.30;99.90;;;;;;5044407;28;20210;-55
2024/02/09 00:12:57;;;;;;;7.40;2.73;;;14.30;99.90;;;;;;5046161;28;20209;-55
2024/02/09 00:15:24;;;;;;;7.43;2.80;;;14.30;99.90;;;;;;5044944;28;20233;-57
2024/02/09 00:17:50;;;;;;;10.87;2.73;;;14.40;99.90;;;;;;5034378;28;20239;-57
2024/02/09 00:20:20;;;;;;;9.00;2.90;;;14.30;99.90;;;;;;5042254;28;20214;-55
2024/02/09 00:22:49;;;;;;;7.97;2.63;;;14.40;99.90;;;;;;5046082;28;20263;-54
2024/02/09 00:25:15;;;;;;;12.07;2.67;;;14.40;99.90;;;;;;5046011;28;20260;-55
2024/02/09 00:27:43;;;;;;;8.07;2.57;;;14.40;99.90;;;;;;5034103;28;20234;-55
2024/02/09 00:30:13;;;;;;;11.23;2.50;;;14.40;99.90;;;;;;5033911;28;20679;-55
2024/02/09 00:32:41;;;;;;;9.47;2.23;;;14.30;99.90;;;;;;5033831;28;20252;-57
2024/02/09 00:35:08;;;;;;;7.30;2.37;;;14.40;99.90;;;;;;5041271;28;20263;-54
2024/02/09 00:37:38;;;;;;;7.63;2.40;;;14.30;99.90;;;;;;5043258;28;20263;-55
2024/02/09 00:40:06;;;;;;;13.03;2.90;;;14.30;99.90;;;;;;5033786;28;20206;-56
2024/02/09 00:42:34;;;;;;;6.87;2.10;;;14.30;99.90;;;;;;5033857;28;20206;-55
2024/02/09 00:45:03;;;;;;;5.83;2.40;;;14.30;99.90;;;;;;5042081;28;20202;-54
2024/02/09 00:47:29;;;;;;;7.47;2.20;;;14.30;99.90;;;;;;5033891;28;20234;-55
2024/02/09 00:49:57;;;;;;;8.07;2.07;;;14.30;99.90;;;;;;5042093;28;20488;-55
2024/02/09 00:52:24;;;;;;;6.13;2.50;;;14.30;99.90;;;;;;5033578;28;20211;-56
2024/02/09 00:54:51;;;;;;;8.77;2.50;;;14.20;99.90;;;;;;5042148;28;20280;-57
2024/02/09 00:57:18;;;;;;;9.67;2.43;;;14.20;99.90;;;;;;5033464;28;20313;-55
2024/02/09 00:59:45;;;;;;;8.90;2.20;;;14.10;99.90;;;;;;5041597;28;20235;-55
2024/02/09 01:02:14;;;;;;;8.33;2.57;;;14.10;99.90;;;;;;5033750;28;20206;-55
2024/02/09 01:04:41;;;;;;;5.97;2.50;;;14.20;99.90;;;;;;5045348;28;20235;-56
2024/02/09 01:07:10;;;;;;;7.43;2.10;;;14.10;99.90;;;;;;5045854;28;20294;-55
2024/02/09 01:09:37;;;;;;;6.60;2.17;;;14.10;99.90;;;;;;5042959;28;20283;-57
2024/02/09 02:44:50;;;;;;;5.33;1.97;;;13.90;99.90;;;;;;5040454;28;20206;-54
2024/02/09 02:47:17;;;;;;;8.87;2.03;;;13.80;99.90;;;;;;5031898;28;20727;-56
2024/02/09 03:06:10;;;;;;;6.67;2.50;;;13.70;99.90;;;;;;5039891;28;20292;-55
2024/02/09 03:08:37;;;;;;;6.90;2.20;;;13.60;99.90;;;;;;5031241;28;20230;-57
2024/02/09 03:11:06;;;;;;;8.80;1.83;;;13.60;99.90;;;;;;5039935;28;20293;-55
2024/02/09 03:13:33;;;;;;;7.70;2.03;;;13.60;99.90;;;;;;5031479;28;20661;-56
2024/02/09 03:16:00;;;;;;;7.30;2.00;;;13.50;99.90;;;;;;5039987;28;20205;-55
2024/02/09 03:18:27;;;;;;;5.77;1.60;;;13.50;99.90;;;;;;5031172;28;20226;-54
2024/02/09 03:20:55;;;;;;;5.13;1.80;;;13.50;99.90;;;;;;5039897;28;20301;-55
2024/02/09 03:23:22;;;;;;;8.10;2.10;;;13.50;99.90;;;;;;5031173;28;20229;-55
2024/02/09 03:25:48;;;;;;;5.67;2.00;;;13.40;99.90;;;;;;5040243;28;20206;-54
2024/02/09 03:28:18;;;;;;;8.53;1.97;;;13.40;99.90;;;;;;5031397;28;20222;-56
2024/02/09 03:30:45;;;;;;;4.20;1.77;;;13.30;99.90;;;;;;5042834;28;20198;-54
2024/02/09 03:33:12;;;;;;;4.97;2.07;;;13.30;99.90;;;;;;5042994;28;20271;-55
2024/02/09 03:35:39;;;;;;;4.80;2.07;;;13.40;99.90;;;;;;5041098;28;20771;-55
2024/02/09 03:38:05;;;;;;;5.47;1.90;;;13.40;99.90;;;;;;5034793;28;20827;-54
2024/02/09 03:40:32;;;;;;;5.37;1.60;;;13.30;99.90;;;;;;5044909;28;20676;-55
2024/02/09 03:42:59;;;;;;;4.43;1.73;;;13.40;99.90;;;;;;5046783;28;20213;-54
2024/02/09 03:45:28;;;;;;;4.90;1.63;;;13.30;99.90;;;;;;5045993;28;20212;-54
2024/02/09 03:47:56;;;;;;;4.33;1.70;;;13.30;99.90;;;;;;5068997;22;20233;-58
2024/02/09 03:50:22;;;;;;;3.87;1.67;;;13.30;99.90;;;;;;5074632;28;20203;-60
2024/02/09 03:52:49;;;;;;;6.63;1.97;;;13.30;99.90;;;;;;5074830;28;20228;-58
2024/02/09 03:55:17;;;;;;;4.13;1.40;;;13.30;99.90;;;;;;5074473;28;20618;-59
2024/02/09 03:57:45;;;;;;;2.70;1.43;;;13.30;99.90;;;;;;5074637;28;20674;-58
2024/02/09 04:00:15;;;;;;;3.17;1.50;;;13.20;99.90;;;;;;5065953;28;20658;-58
2024/02/09 04:02:45;;;;;;;2.03;1.47;;;13.20;99.90;;;;;;5063558;28;20491;-58
2024/02/09 04:05:12;;;;;;;3.73;1.57;;;13.20;99.90;;;;;;5062708;28;20213;-57
2024/02/09 04:07:39;;;;;;;5.03;1.70;;;13.20;99.90;;;;;;5065213;28;20248;-57
2024/02/09 04:10:07;;;;;;;3.13;1.60;;;13.20;99.90;;;;;;5066053;28;20221;-58
2024/02/09 04:12:33;;;;;;;5.73;1.63;;;13.20;99.90;;;;;;5064391;28;20230;-58
2024/02/09 04:15:00;;;;;;;11.23;8.30;;;13.20;99.90;;;;;;5062405;28;20709;-57
2024/02/09 04:17:28;;;;;;;5.63;2.17;;;13.20;99.90;;;;;;5062756;28;20198;-58
2024/02/09 04:19:57;;;;;;;3.53;1.53;;;13.20;99.90;;;;;;5065478;28;20217;-57
2024/02/09 04:22:23;;;;;;;5.17;1.50;;;13.20;99.90;;;;;;5065817;28;20220;-59
2024/02/09 04:24:51;;;;;;;3.93;1.57;;;13.30;99.90;;;;;;5062588;28;20208;-57
2024/02/09 04:27:17;;;;;;;9.00;1.80;;;13.30;99.90;;;;;;5062681;28;20690;-57
2024/02/09 04:29:46;;;;;;;3.00;1.53;;;13.30;99.90;;;;;;5064801;28;20233;-57
2024/02/09 04:32:13;;;;;;;3.23;1.40;;;13.30;99.90;;;;;;5065536;28;20200;-58
2024/02/09 04:34:39;;;;;;;3.07;1.33;;;13.40;99.90;;;;;;5063491;28;20208;-57
2024/02/09 04:37:07;;;;;;;3.83;1.67;;;13.30;99.90;;;;;;5062129;28;20198;-57
2024/02/09 04:39:34;;;;;;;3.37;1.30;;;13.30;99.90;;;;;;5063557;28;20226;-57
2024/02/09 04:42:01;;;;;;;4.40;1.27;;;13.40;99.90;;;;;;5065552;28;20204;-58
2024/02/09 04:44:27;;;;;;;2.17;1.30;;;13.30;99.90;;;;;;5064710;28;20201;-58
2024/02/09 04:46:54;;;;;;;3.10;1.23;;;13.30;99.90;;;;;;5061695;28;20214;-57
2024/02/09 04:49:21;;;;;;;1.77;0.93;;;13.40;99.90;;;;;;5060973;28;20226;-57
2024/02/09 04:51:48;;;;;;;3.37;0.90;;;13.30;99.90;;;;;;5065200;28;20293;-57
2024/02/09 04:54:16;;;;;;;5.87;1.30;;;13.40;99.90;;;;;;5065670;28;20208;-58
2024/02/09 04:56:43;;;;;;;4.33;1.30;;;13.40;99.90;;;;;;5062575;28;20204;-58
2024/02/09 04:59:12;;;;;;;2.97;1.03;;;13.40;99.90;;;;;;5061455;28;20606;-57
2024/02/09 05:01:39;;;;;;;2.17;1.30;;;13.40;99.90;;;;;;5063629;28;20233;-58
2024/02/09 05:04:09;;;;;;;3.93;1.30;;;13.40;99.90;;;;;;5064970;28;20674;-58
2024/02/09 05:06:36;;;;;;;3.07;1.20;;;13.40;99.90;;;;;;5063346;28;20282;-58
2024/02/09 05:09:05;;;;;;;3.60;1.20;;;13.40;99.90;;;;;;5061273;28;20275;-59
2024/02/09 05:11:37;;;;;;;2.00;1.13;;;13.40;99.90;;;;;;5062435;28;20201;-58
2024/02/09 05:14:05;;;;;;;10.03;1.30;;;13.50;99.90;;;;;;5064847;28;20304;-60
2024/02/09 05:16:32;;;;;;;1.93;0.90;;;13.40;99.90;;;;;;5063981;28;20201;-59
2024/02/09 05:19:00;;;;;;;3.60;1.40;;;13.40;99.90;;;;;;5061520;28;20224;-59
2024/02/09 05:21:26;;;;;;;2.20;1.10;;;13.40;99.90;;;;;;5061464;28;20707;-58
2024/02/09 05:23:53;;;;;;;3.80;1.23;;;13.30;99.90;;;;;;5064882;28;20197;-58
2024/02/09 05:26:20;;;;;;;2.40;1.23;;;13.40;99.90;;;;;;5064739;28;20204;-60
2024/02/09 05:28:48;;;;;;;2.57;1.10;;;13.30;99.90;;;;;;5061059;28;20328;-59
2024/02/09 05:31:16;;;;;;;3.53;1.23;;;13.40;99.90;;;;;;5061351;28;20205;-57
2024/02/09 05:33:44;;;;;;;2.40;1.50;;;13.30;99.90;;;;;;5063357;28;20205;-57
2024/02/09 05:36:19;;;;;;;3.07;1.40;;;13.40;99.90;;;;;;5064624;28;20201;-57
2024/02/09 05:38:46;;;;;;;2.20;1.10;;;13.40;99.90;;;;;;5061348;28;20225;-57
2024/02/09 05:41:12;;;;;;;2.97;1.20;;;13.30;99.90;;;;;;5060998;28;20208;-57
2024/02/09 05:43:39;;;;;;;4.73;2.10;;;13.30;99.90;;;;;;5062626;28;20205;-58
2024/02/09 05:46:07;;;;;;;2.17;1.10;;;13.30;99.90;;;;;;5064573;28;20205;-59
2024/02/09 05:48:34;;;;;;;2.73;1.40;;;13.30;99.90;;;;;;5062473;28;20281;-58
2024/02/09 05:51:01;;;;;;;3.07;1.30;;;13.40;99.90;;;;;;5060865;28;20205;-58
2024/02/09 05:53:27;;;;;;;6.37;3.80;;;13.50;99.90;;;;;;5060839;28;20266;-57
2024/02/09 05:55:54;;;;;;;3.73;1.77;;;13.40;99.90;;;;;;5064562;28;20204;-57
2024/02/09 05:58:22;;;;;;;3.67;2.20;;;13.40;99.90;;;;;;5063834;28;20440;-58
2024/02/09 06:00:52;;;;;;;3.53;1.93;;;13.50;99.90;;;;;;5059737;28;20201;-58
2024/02/09 06:03:20;;;;;;;3.13;1.63;;;13.50;99.90;;;;;;5059092;28;20288;-57
2024/02/09 06:05:48;;;;;;;2.50;1.40;;;13.40;99.90;;;;;;5061092;28;20213;-58
2024/02/09 06:08:14;;;;;;;4.90;1.63;;;13.50;99.90;;;;;;5060015;28;20221;-57
2024/02/09 06:10:41;;;;;;;2.33;1.33;;;13.40;99.90;;;;;;5062223;28;20209;-58
2024/02/09 06:13:07;;;;;;;4.57;2.40;;;13.40;99.90;;;;;;5063901;28;20205;-57
2024/02/09 06:15:34;;;;;;;2.47;1.13;;;13.40;99.90;;;;;;5062480;28;20587;-57
2024/02/09 06:18:02;;;;;;;4.63;2.07;;;13.50;99.90;;;;;;5059861;28;20702;-60
2024/02/09 06:20:31;;;;;;;2.03;1.43;;;13.50;99.90;;;;;;5060108;28;20202;-59
2024/02/09 06:22:57;;;;;;;2.30;1.50;;;13.50;99.90;;;;;;5063643;28;20205;-58
2024/02/09 06:25:24;;;;;;;3.00;1.30;;;13.50;99.90;;;;;;5063669;28;20262;-58
2024/02/09 06:27:51;;;;;;;2.37;1.50;;;13.50;99.90;;;;;;5060042;28;20225;-59
2024/02/09 06:30:17;;;;;;;3.17;2.37;;;13.50;99.90;;;;;;5059821;28;20202;-58
2024/02/09 06:32:44;;;;;;;6.50;3.33;;;13.60;99.90;;;;;;5062116;28;20205;-58
2024/02/09 06:35:11;;;;;;;3.60;1.80;;;13.50;99.90;;;;;;5063103;28;20208;-59
2024/02/09 06:37:39;;;;;;;2.00;1.03;;;13.60;99.90;;;;;;5061972;28;20220;-58
2024/02/09 06:40:08;;;;;;;3.80;1.27;;;13.60;99.90;;;;;;5059618;28;20644;-58
2024/02/09 06:42:34;;;;;;;1.50;1.20;;;13.60;99.90;;;;;;5060876;28;20304;-58
2024/02/09 06:45:01;;;;;;;2.20;1.40;;;13.60;99.90;;;;;;5063234;28;20678;-58
2024/02/09 06:47:28;;;;;;;2.57;1.37;;;13.70;99.90;;;;;;5062840;28;20643;-57
2024/02/09 06:49:55;;;;;;;1.47;1.20;;;13.60;99.90;;;;;;5059350;28;20225;-58
2024/02/09 06:52:21;;;;;;;7.23;3.10;;;13.70;99.90;;;;;;5059840;28;20209;-59
2024/02/09 06:54:49;;;;;;;2.30;1.20;;;13.70;99.90;;;;;;5062277;28;20212;-59
2024/02/09 06:57:16;;;;;;;2.90;1.20;;;13.70;99.90;;;;;;5062966;28;20262;-59
2024/02/09 06:59:45;;;;;;;2.40;1.63;;;13.70;99.90;;;;;;5060667;28;20224;-58
2024/02/09 07:02:12;;;;;;;3.87;1.50;;;13.70;99.90;;;;;;5059733;28;20198;-59
2024/02/09 07:04:40;;;;;;;2.07;1.30;;;13.80;99.90;;;;;;5061090;28;20216;-58
2024/02/09 07:07:08;;;;;;;2.13;1.37;;;13.80;99.90;;;;;;5063012;28;20254;-58
2024/02/09 07:09:36;;;;;;;3.13;1.40;;;13.70;99.90;;;;;;5061891;28;20301;-58
2024/02/09 07:12:04;;;;;;;1.30;1.00;;;13.70;99.90;;;;;;5062493;28;20255;-59
2024/02/09 07:14:31;;;;;;;2.40;1.00;;;13.80;99.90;;;;;;5064032;28;20201;-58
2024/02/09 07:16:58;;;;;;;1.30;1.20;;;13.90;99.90;;;;;;5066991;28;20200;-58
2024/02/09 07:19:25;;;;;;;2.97;1.60;;;14.00;99.90;;;;;;5066734;28;20220;-59
2024/02/09 07:21:51;;;;;;;2.83;1.43;;;14.00;99.90;;;;;;5063832;28;20214;-58
2024/02/09 07:24:18;;;;;;;2.57;1.10;;;13.90;99.90;;;;;;5063617;28;20259;-59
2024/02/09 07:26:45;;;;;;;2.53;2.00;;;14.00;99.90;;;;;;5065680;28;20651;-58
2024/02/09 07:29:13;;;;;;;2.87;2.20;;;14.00;99.90;;;;;;5066453;28;20228;-59
2024/02/09 07:31:40;;;;;;;5.07;2.47;;;14.10;99.90;;;;;;5065053;28;20205;-58
2024/02/09 07:34:10;;;;;;;4.20;2.33;;;14.10;99.90;;;;;;5063432;28;20275;-59
2024/02/09 07:36:38;;;;;;;3.33;1.40;;;14.20;99.90;;;;;;5064316;28;20205;-58
2024/02/09 07:39:07;;;;;;;2.17;1.50;;;14.20;99.90;;;;;;5066501;28;20232;-58
2024/02/09 07:41:35;;;;;;;2.33;1.60;;;14.10;99.90;;;;;;5065764;28;20736;-58
2024/02/09 07:44:03;;;;;;;2.43;1.30;;;14.10;99.90;;;;;;5063009;28;20683;-58
2024/02/09 07:46:31;;;;;;;2.50;1.17;;;14.10;99.90;;;;;;5063078;28;20275;-59
2024/02/09 07:48:58;;;;;;;3.57;1.67;;;14.20;99.90;;;;;;5065884;28;20221;-58
2024/02/09 07:51:25;;;;;;;4.63;1.47;;;14.20;99.90;;;;;;5066427;28;20208;-58
2024/02/09 07:53:53;;;;;;;3.53;2.00;;;14.20;99.90;;;;;;5063124;28;20214;-59
2024/02/09 07:56:20;;;;;;;3.57;2.07;;;14.20;99.90;;;;;;5062910;28;20305;-59
2024/02/09 07:58:47;;;;;;;1.23;0.97;;;14.30;99.90;;;;;;5065021;28;20228;-59
2024/02/09 08:01:13;;;;;;;1.33;0.90;;;14.30;99.90;;;;;;5066466;28;20201;-59
2024/02/09 08:03:41;;;;;;;2.20;1.10;;;14.30;99.90;;;;;;5064847;28;20254;-59
2024/02/09 08:06:08;;;;;;;1.37;1.23;;;14.30;99.90;;;;;;5062972;28;20202;-57
2024/02/09 08:08:35;;;;;;;2.83;1.30;;;14.30;99.90;;;;;;5062834;28;20252;-57
2024/02/09 08:11:01;;;;;;;3.13;1.20;;;14.40;99.90;;;;;;5065915;28;20208;-58
2024/02/09 08:13:28;;;;;;;3.77;1.00;;;14.40;99.90;;;;;;5066292;28;20208;-58
2024/02/09 08:15:56;;;;;;;1.53;0.90;;;14.40;99.90;;;;;;5062620;28;20213;-58
2024/02/09 08:18:23;;;;;;;2.20;1.47;;;14.30;99.90;;;;;;5062476;28;20221;-59
2024/02/09 08:20:51;;;;;;;2.10;1.00;;;14.20;99.90;;;;;;5065189;28;20212;-58
2024/02/09 08:23:17;;;;;;;1.90;0.70;;;14.30;99.90;;;;;;5064768;28;20255;-58
2024/02/09 08:25:44;;;;;;;2.20;1.13;;;14.40;99.90;;;;;;5063681;28;20235;-58
2024/02/09 08:28:11;;;;;;;3.40;1.00;;;14.50;99.90;;;;;;5062370;28;20217;-58
2024/02/09 08:30:37;;;;;;;2.50;1.13;;;14.50;99.90;;;;;;5063021;28;20573;-58
2024/02/09 08:33:05;;;;;;;2.87;1.20;;;14.70;99.90;;;;;;5065808;28;20205;-61
2024/02/09 08:35:31;;;;;;;2.67;1.33;;;14.80;99.90;;;;;;5065686;28;20247;-60
2024/02/09 08:37:59;;;;;;;3.47;1.40;;;15.00;99.90;;;;;;5062074;28;20197;-59
2024/02/09 08:40:26;;;;;;;2.00;1.60;;;15.10;99.90;;;;;;5062248;28;20213;-59
2024/02/09 08:42:53;;;;;;;3.17;1.57;;;15.20;99.90;;;;;;5065099;28;20288;-59
2024/02/09 08:45:20;;;;;;;2.83;1.50;;;15.20;99.90;;;;;;5065508;28;20201;-59
2024/02/09 08:47:47;;;;;;;3.83;1.47;;;15.30;99.90;;;;;;5062637;28;20213;-59
2024/02/09 08:50:14;;;;;;;2.87;1.60;;;15.40;99.90;;;;;;5061931;28;20255;-59
2024/02/09 08:52:42;;;;;;;3.60;1.50;;;15.60;99.90;;;;;;5063103;28;20209;-59
2024/02/09 08:55:10;;;;;;;3.67;1.35;;;15.70;99.90;;;;;;5065062;28;20284;-59
2024/02/09 08:57:37;;;;;;;3.70;1.85;;;15.80;99.90;;;;;;5064175;28;20232;-59
2024/02/09 09:00:05;;;;;;;3.13;1.45;;;16.00;99.90;;;;;;5061590;28;20264;-59
2024/02/09 09:02:31;;;;;;;3.15;1.52;;;16.10;99.90;;;;;;5061856;28;20255;-58
2024/02/09 09:04:58;;;;;;;7.80;2.35;;;16.20;99.90;;;;;;5053568;28;20675;-58
2024/02/09 09:07:25;;;;;;;2.85;1.67;;;16.40;99.90;;;;;;5061678;28;20210;-59
2024/02/09 09:09:51;;;;;;;2.42;1.50;;;16.50;99.90;;;;;;5063501;28;20644;-58
2024/02/09 09:12:20;;;;;;;3.58;1.40;;;16.60;99.90;;;;;;5064875;28;20588;-59
2024/02/09 09:14:46;;;;;;;3.75;2.00;;;16.60;99.90;;;;;;5062978;28;20540;-58
2024/02/09 09:17:14;;;;;;;2.88;1.90;;;16.70;99.90;;;;;;5059351;28;20252;-60
2024/02/09 09:19:41;;;;;;;3.53;1.85;;;16.70;99.90;;;;;;5062349;28;20218;-60
2024/02/09 09:22:08;;;;;;;4.07;1.83;;;16.70;99.90;;;;;;5064562;28;20741;-60
2024/02/09 09:24:35;;;;;;;2.53;1.80;;;16.70;99.90;;;;;;5064500;28;20220;-60
2024/02/09 09:27:01;;;;;;;3.90;1.70;;;16.70;99.90;;;;;;5061655;28;20236;-60
2024/02/09 09:29:29;;;;;;;4.28;1.80;;;16.80;99.90;;;;;;5061101;28;20541;-59
2024/02/09 09:31:57;;;;;;;2.50;1.70;;;16.70;99.90;;;;;;5064140;28;20197;-59
2024/02/09 09:34:23;;;;;;;5.57;1.60;;;16.70;99.90;;;;;;5064112;28;20255;-59
2024/02/09 09:36:50;;;;;;;3.00;1.63;;;16.80;99.90;;;;;;5062065;28;20561;-57
2024/02/09 09:39:16;;;;;;;3.53;2.17;;;17.00;99.90;;;;;;5060407;28;20721;-58
2024/02/09 09:41:48;;;;;;;3.92;1.45;;;17.20;99.90;;;;;;5062428;28;20292;-65
2024/02/09 09:44:16;;;;;;;2.13;1.30;;;17.40;99.90;;;;;;5063855;28;20671;-60
2024/02/09 09:46:45;;;;;;;2.22;1.10;;;17.50;99.90;;;;;;5062612;28;20293;-61
2024/02/09 09:49:13;;;;;;;2.90;1.40;;;17.60;99.90;;;;;;5079270;22;20229;-61
2024/02/09 09:51:45;;;;;;;2.17;1.08;;;17.60;99.90;;;;;;5043611;28;20284;-60
2024/02/09 09:54:17;;;;;;;6.25;1.30;;;17.60;99.90;;;;;;5046495;28;20248;-60
2024/02/09 09:56:45;;;;;;;2.67;1.17;;;17.50;99.90;;;;;;5042557;28;20292;-60
2024/02/09 09:59:13;;;;;;;5.72;1.23;;;17.30;99.90;;;;;;5045445;28;20218;-61
2024/02/09 10:01:41;;;;;;;4.43;1.20;;;17.30;99.90;;;;;;5052513;28;20236;-60
2024/02/09 10:04:09;;;;;;;3.30;1.25;;;17.40;99.90;;;;;;5052099;28;20205;-60
2024/02/09 10:06:35;;;;;;;2.33;1.17;;;17.50;99.90;;;;;;5051980;28;20698;-62
2024/02/09 10:09:04;;;;;;;5.13;1.30;;;17.60;99.90;;;;;;5051584;28;20221;-61
2024/02/09 10:11:32;;;;;;;2.83;1.17;;;17.70;99.90;;;;;;5052282;28;20263;-57
2024/02/09 10:13:58;;;;;;;2.00;1.20;;;17.80;99.90;;;;;;5051987;28;20198;-59
2024/02/09 10:16:25;;;;;;;4.80;1.10;;;17.90;99.90;;;;;;5052308;28;20212;-62
2024/02/09 10:18:52;;;;;;;1.60;1.00;;;18.00;99.90;;;;;;5051785;28;20232;-62
2024/02/09 10:21:21;;;;;;;2.92;1.08;;;18.00;99.90;;;;;;5051718;28;20271;-63
2024/02/09 10:23:48;;;;;;;2.75;0.93;;;18.10;99.90;;;;;;5051776;28;20209;-65
2024/02/09 10:26:15;;;;;;;2.53;1.20;;;18.20;99.90;;;;;;5051838;28;20206;-62
2024/02/09 10:28:41;;;;;;;3.28;1.10;;;18.40;99.90;;;;;;5051742;28;20233;-58
2024/02/09 10:31:08;;;;;;;2.63;1.25;;;18.40;99.90;;;;;;5051937;28;20220;-63
2024/02/09 10:33:37;;;;;;;3.50;1.30;;;18.40;99.90;;;;;;5051582;28;20206;-63
2024/02/09 10:36:06;;;;;;;3.90;1.20;;;18.40;99.90;;;;;;5051817;28;20206;-60
2024/02/09 10:38:34;;;;;;;3.00;1.30;;;18.20;99.90;;;;;;5051285;28;20605;-67
2024/02/09 10:41:04;;;;;;;2.17;1.15;;;18.20;99.90;;;;;;5043507;28;20202;-58
2024/02/09 10:43:34;;;;;;;2.40;1.13;;;18.20;99.90;;;;;;5051795;28;20205;-65
2024/02/09 10:46:01;;;;;;;3.75;1.35;;;18.20;99.90;;;;;;5042826;28;20216;-56
2024/02/09 10:48:35;;;;;;;2.75;1.33;;;18.10;99.90;;;;;;5051220;28;20235;-59
2024/02/09 10:51:05;;;;;;;3.10;1.08;;;18.00;99.90;;;;;;5043524;28;20293;-57
2024/02/09 10:53:41;;;;;;;2.40;1.10;;;18.00;99.90;;;;;;5051242;28;20210;-60
2024/02/09 10:56:13;;;;;;;2.30;1.15;;;18.00;99.90;;;;;;5044485;28;20208;-58
2024/02/09 10:58:42;;;;;;;3.55;1.13;;;18.00;99.90;;;;;;5050773;28;20359;-58
2024/02/09 11:01:09;;;;;;;4.20;1.40;;;18.00;99.90;;;;;;5051735;28;20202;-54
2024/02/09 11:03:36;;;;;;;4.15;1.30;;;18.00;99.90;;;;;;5051214;28;20331;-57
2024/02/09 11:06:04;;;;;;;3.78;1.30;;;18.00;99.90;;;;;;5051149;28;20679;-57
2024/02/09 11:08:33;;;;;;;3.13;1.45;;;18.00;99.90;;;;;;5051041;28;20226;-57
2024/02/09 11:11:02;;;;;;;2.08;1.10;;;18.10;99.90;;;;;;5050968;28;20623;-54
2024/02/09 11:13:28;;;;;;;3.78;1.25;;;18.00;99.90;;;;;;5051026;28;20251;-54
2024/02/09 11:15:56;;;;;;;5.60;1.50;;;18.00;99.90;;;;;;5051482;28;20210;-54
2024/02/09 11:18:29;;;;;;;8.45;1.50;;;18.10;99.90;;;;;;5051116;28;20225;-55
2024/02/09 11:21:00;;;;;;;2.10;1.38;;;18.10;99.90;;;;;;5051527;28;20205;-54
2024/02/09 11:23:28;;;;;;;3.30;1.42;;;18.20;99.90;;;;;;5051183;28;20202;-55
2024/02/09 11:25:58;;;;;;;6.85;4.10;;;18.10;99.90;;;;;;5051446;28;20239;-56
2024/02/09 11:28:26;;;;;;;3.70;1.10;;;18.10;99.90;;;;;;5050211;28;20222;-59
2024/02/09 11:30:56;;;;;;;16.27;9.30;;;18.00;99.90;;;;;;5051086;28;20205;-58
2024/02/09 11:33:23;;;;;;;4.18;1.88;;;17.90;99.90;;;;;;5051073;28;20202;-57
2024/02/09 11:35:49;;;;;;;5.25;2.10;;;17.90;99.90;;;;;;5050846;28;20566;-58
2024/02/09 11:38:20;;;;;;;3.35;1.33;;;17.80;99.90;;;;;;5040086;28;20209;-56
2024/02/09 11:40:48;;;;;;;4.57;1.80;;;17.80;99.90;;;;;;5050570;28;20232;-58
2024/02/09 11:43:14;;;;;;;3.42;1.60;;;17.90;99.90;;;;;;5050744;28;20206;-58
2024/02/09 11:45:43;;;;;;;5.07;1.52;;;18.00;99.90;;;;;;5050402;28;20226;-58
2024/02/09 11:48:12;;;;;;;3.47;1.13;;;18.00;99.90;;;;;;5050316;28;20299;-56
2024/02/09 11:50:39;;;;;;;3.80;2.00;;;18.00;99.90;;;;;;5050457;28;20714;-58
2024/02/09 11:53:07;;;;;;;4.38;1.33;;;18.00;99.90;;;;;;5051249;28;20213;-59
2024/02/09 11:55:39;;;;;;;6.00;1.50;;;18.10;99.90;;;;;;5050708;28;20206;-58
2024/02/09 11:58:07;;;;;;;3.90;1.33;;;18.20;99.90;;;;;;5044856;28;20248;-59
2024/02/09 12:00:33;;;;;;;5.35;2.53;;;18.30;99.90;;;;;;5054097;28;20663;-60
2024/02/09 12:03:03;;;;;;;2.30;1.20;;;18.30;99.90;;;;;;5054009;28;20260;-57
2024/02/09 12:05:30;;;;;;;3.47;1.10;;;18.30;99.90;;;;;;5053883;28;20582;-60
2024/02/09 12:07:56;;;;;;;3.33;1.15;;;18.30;99.90;;;;;;5053900;28;20210;-58
2024/02/09 12:10:23;;;;;;;5.97;2.90;;;18.20;99.90;;;;;;5053433;28;20264;-58
2024/02/09 12:12:50;;;;;;;5.72;2.03;;;18.00;99.90;;;;;;5053716;28;20689;-59
2024/02/09 12:15:18;;;;;;;7.43;3.30;;;17.80;99.90;;;;;;5053850;28;20659;-58
2024/02/09 12:17:45;;;;;;;2.20;1.35;;;17.70;99.90;;;;;;5053666;28;20308;-59
2024/02/09 12:20:14;;;;;;;6.95;1.90;;;17.60;99.90;;;;;;5053500;28;20711;-59
2024/02/09 12:22:44;;;;;;;2.75;1.83;;;17.50;99.90;;;;;;5053080;28;20210;-58
2024/02/09 12:25:13;;;;;;;3.03;1.30;;;17.50;99.90;;;;;;5053388;28;20210;-58
2024/02/09 12:27:40;;;;;;;3.45;1.60;;;17.40;99.90;;;;;;5053738;28;20243;-57
2024/02/09 12:30:09;;;;;;;1.70;1.00;;;17.40;99.90;;;;;;5053144;28;20755;-59
2024/02/09 12:32:36;;;;;;;6.65;2.65;;;17.40;99.90;;;;;;5053546;28;20218;-57
2024/02/09 12:35:04;;;;;;;4.75;1.30;;;17.40;99.90;;;;;;5053227;28;20300;-57
2024/02/09 12:37:32;;;;;;;3.20;0.90;;;17.20;99.90;;;;;;5053625;28;20206;-61
2024/02/09 12:40:03;;;;;;;2.75;1.23;;;17.10;99.90;;;;;;5053049;28;20229;-60
2024/02/09 12:42:32;;;;;;;4.63;1.27;;;17.10;99.90;;;;;;5053477;28;20209;-57
2024/02/09 12:44:58;;;;;;;1.77;1.10;;;17.10;99.90;;;;;;5053407;28;22952;-59
2024/02/09 12:47:25;;;;;;;5.78;1.75;;;17.00;99.90;;;;;;5053064;28;20205;-57
2024/02/09 12:49:52;;;;;;;7.05;3.13;;;17.00;99.90;;;;;;5054609;28;20225;-58
2024/02/09 12:52:20;;;;;;;3.65;1.35;;;17.00;99.90;;;;;;5067783;28;20220;-56
2024/02/09 12:54:48;;;;;;;3.50;1.50;;;16.90;99.90;;;;;;5053260;28;20732;-57
2024/02/09 12:57:14;;;;;;;1.75;1.35;;;17.00;99.90;;;;;;5053372;28;20205;-57
2024/02/09 12:59:41;;;;;;;3.17;1.25;;;16.90;99.90;;;;;;5053310;28;20221;-55
2024/02/09 13:02:10;;;;;;;2.40;1.20;;;16.90;99.90;;;;;;5053335;28;20205;-55
2024/02/09 13:04:36;;;;;;;3.13;1.55;;;16.90;99.90;;;;;;5053225;28;20676;-55
2024/02/09 13:07:06;;;;;;;3.03;1.35;;;16.90;99.90;;;;;;5053076;28;20251;-55
2024/02/09 13:09:32;;;;;;;3.40;1.73;;;17.00;99.90;;;;;;5052596;28;20232;-55
2024/02/09 13:12:01;;;;;;;2.75;1.50;;;17.00;99.90;;;;;;5053882;28;20563;-56
2024/02/09 13:14:27;;;;;;;2.58;1.20;;;17.00;99.90;;;;;;5054532;28;20263;-55
2024/02/09 13:16:54;;;;;;;4.65;1.65;;;17.00;99.90;;;;;;5054720;28;20264;-56
2024/02/09 13:19:23;;;;;;;6.82;4.13;;;16.90;99.90;;;;;;5053547;28;20214;-55
2024/02/09 13:21:51;;;;;;;3.13;1.75;;;16.90;99.90;;;;;;5054040;28;20277;-56
2024/02/09 13:24:20;;;;;;;3.30;2.15;;;16.90;99.90;;;;;;5053444;28;20206;-56
2024/02/09 13:26:50;;;;;;;3.92;1.85;;;16.80;99.90;;;;;;5053373;28;20249;-56
2024/02/09 13:29:18;;;;;;;3.78;1.85;;;16.80;99.90;;;;;;5052640;28;20230;-56
2024/02/09 13:31:45;;;;;;;2.65;1.85;;;16.70;99.90;;;;;;5052916;28;20435;-56
2024/02/09 13:34:15;;;;;;;3.35;1.38;;;16.60;99.90;;;;;;5053094;28;20208;-57
2024/02/09 13:36:41;;;;;;;3.90;1.60;;;16.50;99.90;;;;;;5052983;28;20220;-57
2024/02/09 13:39:11;;;;;;;3.47;1.17;;;16.50;99.90;;;;;;5052596;28;20225;-56
2024/02/09 13:41:38;;;;;;;5.30;1.40;;;16.40;99.90;;;;;;5052704;28;20209;-56
2024/02/09 13:44:05;;;;;;;5.30;1.50;;;16.30;99.90;;;;;;5052787;28;20688;-56
2024/02/09 13:46:33;;;;;;;4.90;1.80;;;16.20;99.90;;;;;;5052861;28;20581;-57
2024/02/09 13:48:59;;;;;;;4.70;1.77;;;16.10;99.90;;;;;;5052449;28;20240;-58
2024/02/09 13:51:29;;;;;;;3.28;1.17;;;16.10;99.90;;;;;;5052175;28;20698;-57
2024/02/09 13:53:56;;;;;;;3.05;1.30;;;16.10;99.90;;;;;;5052378;28;20210;-57
2024/02/09 13:56:23;;;;;;;2.83;1.42;;;16.00;99.90;;;;;;5052542;28;20209;-57
2024/02/09 13:58:49;;;;;;;6.80;2.70;;;16.00;99.90;;;;;;5051714;28;20221;-56
2024/02/09 14:01:18;;;;;;;37.38;30.50;;;15.90;99.90;;;;;;5052619;28;20205;-56
2024/02/09 14:03:46;;;;;;;4.78;2.75;;;16.00;99.90;;;;;;5052228;28;20206;-55
2024/02/09 14:06:13;;;;;;;8.02;3.47;;;16.00;99.90;;;;;;5052436;28;20586;-56
2024/02/09 14:08:40;;;;;;;4.60;1.67;;;16.10;99.90;;;;;;5051846;28;20226;-55
2024/02/09 14:11:06;;;;;;;3.22;1.75;;;16.10;99.90;;;;;;5043831;28;20221;-55
2024/02/09 14:13:34;;;;;;;3.85;1.75;;;16.10;99.90;;;;;;5051978;28;20202;-55
2024/02/09 14:16:02;;;;;;;5.15;1.30;;;16.10;99.90;;;;;;5052069;28;20635;-57
2024/02/09 14:18:28;;;;;;;5.03;2.00;;;16.10;99.90;;;;;;5051823;28;20221;-55
2024/02/09 14:20:58;;;;;;;3.90;2.03;;;16.10;99.90;;;;;;5050847;28;20671;-56
2024/02/09 14:23:26;;;;;;;2.63;1.42;;;16.10;99.90;;;;;;5052142;28;20201;-55
2024/02/09 14:25:53;;;;;;;2.72;1.13;;;16.10;99.90;;;;;;5052022;28;20205;-55
2024/02/09 14:28:20;;;;;;;6.95;2.53;;;16.10;99.90;;;;;;5051403;28;20202;-56
2024/02/09 14:30:47;;;;;;;3.45;1.80;;;16.10;99.90;;;;;;5051890;28;20249;-59
2024/02/09 14:33:14;;;;;;;66.32;34.78;;;16.10;99.90;;;;;;5051754;28;20628;-55
2024/02/09 14:35:40;;;;;;;48.13;27.13;;;16.00;99.90;;;;;;5051878;28;20259;-56